Main page
METAR-TAF:

METAR-TAF

Airports :

King Fahd International Airport

Dammam, Saudi Arabia

latitude: 26-28N, longitude: 049-47E, elevation: 22 m

Current weather observation

The report was made 1 hour and 7 minutes ago, at 07:00 UTC
Wind 9 kt from the Northwest
Temperature 40°C
Humidity 19%
Pressure 1001 hPa
Visibility 10 km or more
no clouds below 1500 m and no cumulonimbus

METAR: OEDF 250700Z 31009KT CAVOK 40/12 Q1001 NOSIG

Time: 11:07 (08:07 UTC)

Forecast

The report was made 5 hours and 48 minutes ago, at 02:19 UTC
Forecast valid from 25 at 06 UTC to 26 at 12 UTC
Wind 15 kt from the North
Visibility 10 km or more
no clouds below 1500 m and no cumulonimbus
Becoming
from 25 at 17 UTC to 25 at 19 UTC
Wind 5 kt from variable directions
Probability 30% :
Temporary
from 26 at 02 UTC to 26 at 05 UTC
Visibility: 5000 m
haze

TAF: OEDF 250219Z 2506/2612 35015KT CAVOK BECMG 2517/2519 VRB05KT PROB30 TEMPO 2602/2605 5000 HZ NSC

Weather observations and forecasts of more than 4000 airports (METAR and TAF reports).

The available stations are represented by yellow and red dots on the map.

Hover mouse over dot to see the name of the station.

Then click to see weather observations and forecasts.

To change the map : click on the green buttons with a black cross to zoom in, on the green button with a dash to zoom out, or on the green arrows for adjacent maps.


METAR-TAF: